sensor_id;sensor_type;location;lat;lon;timestamp;pressure;altitude;pressure_sealevel;temperature;humidity
80624;BME280;70269;44.768;9.600;2024-01-15T00:00:39;96414.91;;;0.71;100.00
80624;BME280;70269;44.768;9.600;2024-01-15T00:03:05;96405.66;;;0.67;100.00
80624;BME280;70269;44.768;9.600;2024-01-15T00:05:31;96401.25;;;0.74;100.00
80624;BME280;70269;44.768;9.600;2024-01-15T00:07:56;96405.16;;;0.87;100.00
80624;BME280;70269;44.768;9.600;2024-01-15T00:10:23;96401.78;;;0.93;99.62
80624;BME280;70269;44.768;9.600;2024-01-15T00:12:49;96393.41;;;1.04;99.00
80624;BME280;70269;44.768;9.600;2024-01-15T00:15:15;96390.34;;;1.07;98.23
80624;BME280;70269;44.768;9.600;2024-01-15T00:17:40;96388.13;;;0.96;98.13
80624;BME280;70269;44.768;9.600;2024-01-15T00:20:07;96384.41;;;1.05;98.38
80624;BME280;70269;44.768;9.600;2024-01-15T00:22:32;96378.88;;;1.06;97.74
80624;BME280;70269;44.768;9.600;2024-01-15T00:24:58;96376.22;;;1.06;98.06
80624;BME280;70269;44.768;9.600;2024-01-15T00:27:23;96375.06;;;1.09;97.73
80624;BME280;70269;44.768;9.600;2024-01-15T00:29:49;96379.91;;;1.05;97.28
80624;BME280;70269;44.768;9.600;2024-01-15T00:32:19;96381.09;;;1.03;97.07
80624;BME280;70269;44.768;9.600;2024-01-15T00:34:45;96371.75;;;1.07;97.08
80624;BME280;70269;44.768;9.600;2024-01-15T00:37:11;96362.03;;;1.14;96.26
80624;BME280;70269;44.768;9.600;2024-01-15T00:39:36;96364.78;;;1.06;96.40
80624;BME280;70269;44.768;9.600;2024-01-15T00:42:02;96357.44;;;1.08;96.85
80624;BME280;70269;44.768;9.600;2024-01-15T00:44:28;96362.03;;;1.14;96.51
80624;BME280;70269;44.768;9.600;2024-01-15T00:46:53;96350.13;;;1.10;96.25
80624;BME280;70269;44.768;9.600;2024-01-15T00:49:19;96348.56;;;1.15;96.54
80624;BME280;70269;44.768;9.600;2024-01-15T00:51:45;96349.47;;;1.08;96.75
80624;BME280;70269;44.768;9.600;2024-01-15T00:54:10;96347.19;;;1.05;96.68
80624;BME280;70269;44.768;9.600;2024-01-15T00:56:36;96347.53;;;1.02;96.85
80624;BME280;70269;44.768;9.600;2024-01-15T00:59:02;96335.72;;;1.04;97.19
80624;BME280;70269;44.768;9.600;2024-01-15T01:01:28;96332.69;;;1.07;96.88
80624;BME280;70269;44.768;9.600;2024-01-15T01:03:53;96331.84;;;1.07;97.36
80624;BME280;70269;44.768;9.600;2024-01-15T01:06:19;96326.53;;;1.07;97.53
80624;BME280;70269;44.768;9.600;2024-01-15T01:08:44;96328.03;;;1.09;97.81
80624;BME280;70269;44.768;9.600;2024-01-15T01:11:14;96330.50;;;1.11;97.95
80624;BME280;70269;44.768;9.600;2024-01-15T01:13:40;96324.63;;;1.15;97.66
80624;BME280;70269;44.768;9.600;2024-01-15T01:16:05;96321.16;;;1.15;97.35
80624;BME280;70269;44.768;9.600;2024-01-15T01:18:31;96326.56;;;1.21;97.53
80624;BME280;70269;44.768;9.600;2024-01-15T01:20:56;96319.03;;;1.25;97.33
80624;BME280;70269;44.768;9.600;2024-01-15T01:23:22;96310.44;;;1.23;97.90
80624;BME280;70269;44.768;9.600;2024-01-15T01:25:47;96308.66;;;1.30;98.10
80624;BME280;70269;44.768;9.600;2024-01-15T01:28:13;96302.25;;;1.39;97.84
80624;BME280;70269;44.768;9.600;2024-01-15T01:30:38;96295.75;;;1.42;97.46
80624;BME280;70269;44.768;9.600;2024-01-15T01:33:04;96301.34;;;1.47;96.81
80624;BME280;70269;44.768;9.600;2024-01-15T01:35:30;96286.19;;;1.47;96.85
80624;BME280;70269;44.768;9.600;2024-01-15T01:37:55;96285.56;;;1.45;97.08
80624;BME280;70269;44.768;9.600;2024-01-15T01:40:21;96292.72;;;1.45;97.32
80624;BME280;70269;44.768;9.600;2024-01-15T01:42:47;96293.28;;;1.40;97.72
80624;BME280;70269;44.768;9.600;2024-01-15T01:45:13;96296.19;;;1.45;98.06
80624;BME280;70269;44.768;9.600;2024-01-15T01:47:39;96297.13;;;1.52;97.88
80624;BME280;70269;44.768;9.600;2024-01-15T01:50:05;96293.44;;;1.53;98.10
80624;BME280;70269;44.768;9.600;2024-01-15T01:52:31;96291.41;;;1.55;97.79
80624;BME280;70269;44.768;9.600;2024-01-15T01:54:58;96284.50;;;1.61;97.64
80624;BME280;70269;44.768;9.600;2024-01-15T01:57:25;96290.22;;;1.58;97.79
80624;BME280;70269;44.768;9.600;2024-01-15T01:59:51;96294.06;;;1.55;98.47
80624;BME280;70269;44.768;9.600;2024-01-15T02:02:18;96297.38;;;1.57;98.69
80624;BME280;70269;44.768;9.600;2024-01-15T02:04:44;96299.66;;;1.60;98.65
80624;BME280;70269;44.768;9.600;2024-01-15T02:07:09;96302.31;;;1.60;98.90
80624;BME280;70269;44.768;9.600;2024-01-15T02:09:35;96304.34;;;1.58;99.22
80624;BME280;70269;44.768;9.600;2024-01-15T02:12:01;96304.53;;;1.57;99.83
80624;BME280;70269;44.768;9.600;2024-01-15T02:14:27;96308.28;;;1.62;99.77
80624;BME280;70269;44.768;9.600;2024-01-15T02:16:52;96302.03;;;1.70;99.04
80624;BME280;70269;44.768;9.600;2024-01-15T02:19:18;96289.91;;;1.68;98.94
80624;BME280;70269;44.768;9.600;2024-01-15T02:21:44;96287.25;;;1.68;98.64
80624;BME280;70269;44.768;9.600;2024-01-15T02:24:10;96283.59;;;1.69;97.46
80624;BME280;70269;44.768;9.600;2024-01-15T02:26:37;96280.94;;;1.69;97.51
80624;BME280;70269;44.768;9.600;2024-01-15T02:29:05;96284.50;;;1.76;97.41
80624;BME280;70269;44.768;9.600;2024-01-15T02:31:32;96268.34;;;1.77;97.29
80624;BME280;70269;44.768;9.600;2024-01-15T02:33:57;96272.00;;;1.76;97.63
80624;BME280;70269;44.768;9.600;2024-01-15T02:36:23;96269.34;;;1.91;96.88
80624;BME280;70269;44.768;9.600;2024-01-15T02:38:48;96262.75;;;2.08;95.85
80624;BME280;70269;44.768;9.600;2024-01-15T02:41:14;96250.19;;;2.02;95.21
80624;BME280;70269;44.768;9.600;2024-01-15T02:43:40;96240.53;;;2.01;95.55
80624;BME280;70269;44.768;9.600;2024-01-15T02:46:06;96237.88;;;2.01;95.04
80624;BME280;70269;44.768;9.600;2024-01-15T02:48:32;96242.38;;;2.00;95.08
80624;BME280;70269;44.768;9.600;2024-01-15T02:50:58;96230.97;;;2.07;94.88
80624;BME280;70269;44.768;9.600;2024-01-15T02:53:24;96235.72;;;2.11;93.94
80624;BME280;70269;44.768;9.600;2024-01-15T02:55:49;96236.88;;;2.02;94.41
80624;BME280;70269;44.768;9.600;2024-01-15T02:58:15;96232.56;;;2.01;94.43
80624;BME280;70269;44.768;9.600;2024-01-15T03:00:40;96222.16;;;1.85;95.37
80624;BME280;70269;44.768;9.600;2024-01-15T03:03:06;96219.59;;;1.98;95.14
80624;BME280;70269;44.768;9.600;2024-01-15T03:05:32;96220.00;;;1.95;94.83
80624;BME280;70269;44.768;9.600;2024-01-15T03:07:57;96220.72;;;2.03;94.80
80624;BME280;70269;44.768;9.600;2024-01-15T03:10:23;96212.94;;;1.87;95.59
80624;BME280;70269;44.768;9.600;2024-01-15T03:12:48;96202.13;;;1.89;95.35
80624;BME280;70269;44.768;9.600;2024-01-15T03:15:14;96197.38;;;1.84;96.24
80624;BME280;70269;44.768;9.600;2024-01-15T03:17:41;96192.97;;;1.77;97.26
80624;BME280;70269;44.768;9.600;2024-01-15T03:20:08;96190.56;;;1.82;97.27
80624;BME280;70269;44.768;9.600;2024-01-15T03:22:34;96206.63;;;2.10;95.97
80624;BME280;70269;44.768;9.600;2024-01-15T03:24:59;96198.41;;;2.32;96.19
80624;BME280;70269;44.768;9.600;2024-01-15T03:27:25;96182.06;;;2.63;95.13
80624;BME280;70269;44.768;9.600;2024-01-15T03:29:51;96191.41;;;2.53;95.24
80624;BME280;70269;44.768;9.600;2024-01-15T03:32:17;96188.44;;;2.41;95.42
80624;BME280;70269;44.768;9.600;2024-01-15T03:34:43;96190.03;;;2.35;95.75
80624;BME280;70269;44.768;9.600;2024-01-15T03:37:08;96182.53;;;2.46;95.03
80624;BME280;70269;44.768;9.600;2024-01-15T03:39:34;96178.03;;;2.46;95.13
80624;BME280;70269;44.768;9.600;2024-01-15T03:41:59;96175.94;;;2.41;94.68
80624;BME280;70269;44.768;9.600;2024-01-15T03:44:25;96177.41;;;2.44;94.78
80624;BME280;70269;44.768;9.600;2024-01-15T03:46:50;96173.91;;;2.43;94.73
80624;BME280;70269;44.768;9.600;2024-01-15T03:49:16;96161.00;;;2.75;91.73
80624;BME280;70269;44.768;9.600;2024-01-15T03:51:42;96144.06;;;2.55;93.54
80624;BME280;70269;44.768;9.600;2024-01-15T03:54:07;96136.84;;;2.49;94.53
80624;BME280;70269;44.768;9.600;2024-01-15T03:56:33;96137.78;;;2.41;95.27
80624;BME280;70269;44.768;9.600;2024-01-15T03:58:58;96135.13;;;2.34;95.80
80624;BME280;70269;44.768;9.600;2024-01-15T04:01:24;96133.06;;;2.36;96.00
80624;BME280;70269;44.768;9.600;2024-01-15T04:03:49;96131.03;;;2.38;96.39
80624;BME280;70269;44.768;9.600;2024-01-15T04:06:15;96131.91;;;2.46;95.73
80624;BME280;70269;44.768;9.600;2024-01-15T04:08:41;96133.56;;;2.47;95.65
80624;BME280;70269;44.768;9.600;2024-01-15T04:11:06;96132.91;;;2.44;95.80
80624;BME280;70269;44.768;9.600;2024-01-15T04:13:32;96135.41;;;2.46;95.75
80624;BME280;70269;44.768;9.600;2024-01-15T04:15:58;96131.91;;;2.46;96.02
80624;BME280;70269;44.768;9.600;2024-01-15T04:18:23;96121.84;;;2.48;95.48
80624;BME280;70269;44.768;9.600;2024-01-15T04:20:49;96121.44;;;2.44;95.95
80624;BME280;70269;44.768;9.600;2024-01-15T04:23:14;96121.44;;;2.44;95.72
80624;BME280;70269;44.768;9.600;2024-01-15T04:25:40;96116.94;;;2.44;96.01
80624;BME280;70269;44.768;9.600;2024-01-15T04:28:10;96113.66;;;2.49;96.15
80624;BME280;70269;44.768;9.600;2024-01-15T04:30:36;96117.94;;;2.43;96.30
80624;BME280;70269;44.768;9.600;2024-01-15T04:33:02;96114.63;;;2.41;96.84
80624;BME280;70269;44.768;9.600;2024-01-15T04:35:27;96117.94;;;2.43;96.38
80624;BME280;70269;44.768;9.600;2024-01-15T04:37:53;96121.00;;;2.40;96.79
80624;BME280;70269;44.768;9.600;2024-01-15T04:40:18;96124.47;;;2.41;96.98
80624;BME280;70269;44.768;9.600;2024-01-15T04:42:44;96119.34;;;2.39;97.43
80624;BME280;70269;44.768;9.600;2024-01-15T04:45:11;96113.72;;;2.56;95.79
80624;BME280;70269;44.768;9.600;2024-01-15T04:47:37;96119.63;;;2.23;97.75
80624;BME280;70269;44.768;9.600;2024-01-15T04:50:04;96119.72;;;2.36;97.50
80624;BME280;70269;44.768;9.600;2024-01-15T04:52:29;96113.56;;;2.36;97.38
80624;BME280;70269;44.768;9.600;2024-01-15T04:54:55;96109.47;;;2.33;97.85
80624;BME280;70269;44.768;9.600;2024-01-15T04:57:20;96108.66;;;2.33;98.10
80624;BME280;70269;44.768;9.600;2024-01-15T04:59:46;96114.22;;;2.38;97.94
80624;BME280;70269;44.768;9.600;2024-01-15T05:02:12;96105.03;;;2.40;97.22
80624;BME280;70269;44.768;9.600;2024-01-15T05:04:37;96101.94;;;2.43;97.58
80624;BME280;70269;44.768;9.600;2024-01-15T05:07:03;96107.09;;;2.45;97.37
80624;BME280;70269;44.768;9.600;2024-01-15T05:09:28;96101.56;;;2.47;97.07
80624;BME280;70269;44.768;9.600;2024-01-15T05:11:54;96101.81;;;2.52;96.95
80624;BME280;70269;44.768;9.600;2024-01-15T05:14:19;96097.31;;;2.52;96.21
80624;BME280;70269;44.768;9.600;2024-01-15T05:16:49;96090.47;;;2.43;96.76
80624;BME280;70269;44.768;9.600;2024-01-15T05:19:15;96100.16;;;2.51;96.42
80624;BME280;70269;44.768;9.600;2024-01-15T05:21:41;96096.31;;;2.60;95.67
80624;BME280;70269;44.768;9.600;2024-01-15T05:24:07;96095.66;;;2.51;95.89
80624;BME280;70269;44.768;9.600;2024-01-15T05:26:33;96085.97;;;2.43;96.40
80624;BME280;70269;44.768;9.600;2024-01-15T05:28:59;96084.34;;;2.49;96.87
80624;BME280;70269;44.768;9.600;2024-01-15T05:31:25;96084.13;;;2.44;97.38
80624;BME280;70269;44.768;9.600;2024-01-15T05:33:50;96068.56;;;2.48;96.79
80624;BME280;70269;44.768;9.600;2024-01-15T05:36:16;96082.06;;;2.39;97.77
80624;BME280;70269;44.768;9.600;2024-01-15T05:38:41;96091.06;;;2.38;97.79
80624;BME280;70269;44.768;9.600;2024-01-15T05:41:07;96100.56;;;2.20;98.72
80624;BME280;70269;44.768;9.600;2024-01-15T05:43:33;96084.56;;;1.92;100.00
80624;BME280;70269;44.768;9.600;2024-01-15T05:45:58;96085.31;;;1.86;100.00
80624;BME280;70269;44.768;9.600;2024-01-15T05:48:24;96090.56;;;2.00;100.00
80624;BME280;70269;44.768;9.600;2024-01-15T05:50:50;96082.81;;;2.06;99.47
80624;BME280;70269;44.768;9.600;2024-01-15T05:53:15;96080.41;;;2.38;98.36
80624;BME280;70269;44.768;9.600;2024-01-15T05:55:41;96074.94;;;2.47;97.52
80624;BME280;70269;44.768;9.600;2024-01-15T05:58:06;96090.44;;;2.71;96.69
80624;BME280;70269;44.768;9.600;2024-01-15T06:00:32;96091.38;;;2.98;94.31
80624;BME280;70269;44.768;9.600;2024-01-15T06:03:03;96098.69;;;2.82;94.98
80624;BME280;70269;44.768;9.600;2024-01-15T06:05:29;96090.78;;;2.61;96.57
80624;BME280;70269;44.768;9.600;2024-01-15T06:07:55;96085.09;;;2.36;97.70
80624;BME280;70269;44.768;9.600;2024-01-15T06:10:21;96086.88;;;2.29;97.94
80624;BME280;70269;44.768;9.600;2024-01-15T06:12:46;96083.59;;;2.62;96.77
80624;BME280;70269;44.768;9.600;2024-01-15T06:15:12;96087.88;;;2.56;96.74
80624;BME280;70269;44.768;9.600;2024-01-15T06:17:38;96089.56;;;2.01;99.68
80624;BME280;70269;44.768;9.600;2024-01-15T06:20:04;96096.09;;;2.27;97.96
80624;BME280;70269;44.768;9.600;2024-01-15T06:22:30;96090.66;;;1.86;99.31
80624;BME280;70269;44.768;9.600;2024-01-15T06:24:55;96089.97;;;1.56;100.00
80624;BME280;70269;44.768;9.600;2024-01-15T06:27:21;96080.91;;;1.50;100.00
80624;BME280;70269;44.768;9.600;2024-01-15T06:29:47;96092.94;;;1.68;100.00
80624;BME280;70269;44.768;9.600;2024-01-15T06:32:13;96086.09;;;1.80;100.00
80624;BME280;70269;44.768;9.600;2024-01-15T06:34:38;96065.78;;;2.00;99.99
80624;BME280;70269;44.768;9.600;2024-01-15T06:37:05;96058.03;;;2.05;98.61
80624;BME280;70269;44.768;9.600;2024-01-15T06:39:30;96043.59;;;1.93;98.90
80624;BME280;70269;44.768;9.600;2024-01-15T06:41:56;96052.13;;;1.82;99.46
80624;BME280;70269;44.768;9.600;2024-01-15T06:44:21;96054.91;;;1.74;100.00
80624;BME280;70269;44.768;9.600;2024-01-15T06:46:47;96048.16;;;1.71;100.00
80624;BME280;70269;44.768;9.600;2024-01-15T06:49:13;96046.19;;;1.58;100.00
80624;BME280;70269;44.768;9.600;2024-01-15T06:51:39;96044.00;;;1.41;100.00
80624;BME280;70269;44.768;9.600;2024-01-15T06:54:05;96032.13;;;1.92;100.00
80624;BME280;70269;44.768;9.600;2024-01-15T06:56:31;96023.56;;;2.31;98.14
80624;BME280;70269;44.768;9.600;2024-01-15T06:58:57;96025.53;;;2.16;98.31
80624;BME280;70269;44.768;9.600;2024-01-15T07:01:23;96027.88;;;1.98;99.60
80624;BME280;70269;44.768;9.600;2024-01-15T07:03:49;96028.84;;;1.90;100.00
80624;BME280;70269;44.768;9.600;2024-01-15T07:06:14;96031.31;;;1.92;100.00
80624;BME280;70269;44.768;9.600;2024-01-15T07:08:40;96034.50;;;1.81;100.00
80624;BME280;70269;44.768;9.600;2024-01-15T07:11:06;96046.22;;;1.86;100.00
80624;BME280;70269;44.768;9.600;2024-01-15T07:13:32;96036.16;;;1.82;100.00
80624;BME280;70269;44.768;9.600;2024-01-15T07:15:58;96050.38;;;2.23;98.80
80624;BME280;70269;44.768;9.600;2024-01-15T07:18:23;96056.06;;;2.14;99.00
80624;BME280;70269;44.768;9.600;2024-01-15T07:20:50;96046.09;;;1.94;99.63
80624;BME280;70269;44.768;9.600;2024-01-15T07:23:15;96044.81;;;2.18;98.16
80624;BME280;70269;44.768;9.600;2024-01-15T07:25:41;96043.47;;;2.35;97.57
80624;BME280;70269;44.768;9.600;2024-01-15T07:28:07;96053.28;;;2.63;96.67
80624;BME280;70269;44.768;9.600;2024-01-15T07:30:32;96056.34;;;2.66;97.81
80624;BME280;70269;44.768;9.600;2024-01-15T07:32:58;96036.88;;;2.66;97.63
80624;BME280;70269;44.768;9.600;2024-01-15T07:35:23;96045.50;;;2.27;99.88
80624;BME280;70269;44.768;9.600;2024-01-15T07:37:49;96039.00;;;2.42;98.32
80624;BME280;70269;44.768;9.600;2024-01-15T07:40:15;96038.63;;;2.46;97.99
80624;BME280;70269;44.768;9.600;2024-01-15T07:42:42;96040.53;;;2.58;97.16
80624;BME280;70269;44.768;9.600;2024-01-15T07:45:09;96050.63;;;2.69;96.63
80624;BME280;70269;44.768;9.600;2024-01-15T07:47:35;96047.88;;;2.50;97.83
80624;BME280;70269;44.768;9.600;2024-01-15T07:50:01;96051.81;;;2.26;98.26
80624;BME280;70269;44.768;9.600;2024-01-15T07:52:26;96050.00;;;2.26;98.03
80624;BME280;70269;44.768;9.600;2024-01-15T07:54:52;96058.13;;;2.18;98.60
80624;BME280;70269;44.768;9.600;2024-01-15T07:57:17;96064.47;;;2.45;96.67
80624;BME280;70269;44.768;9.600;2024-01-15T07:59:43;96067.06;;;2.38;98.22
80624;BME280;70269;44.768;9.600;2024-01-15T08:02:09;96065.19;;;2.32;98.73
80624;BME280;70269;44.768;9.600;2024-01-15T08:04:37;96057.84;;;2.34;99.47
80624;BME280;70269;44.768;9.600;2024-01-15T08:07:03;96062.84;;;2.51;98.24
80624;BME280;70269;44.768;9.600;2024-01-15T08:09:29;96066.28;;;2.85;96.08
80624;BME280;70269;44.768;9.600;2024-01-15T08:11:55;96067.31;;;2.84;96.89
80624;BME280;70269;44.768;9.600;2024-01-15T08:14:20;96061.16;;;2.91;98.21
80624;BME280;70269;44.768;9.600;2024-01-15T08:16:46;96074.78;;;3.02;97.79
80624;BME280;70269;44.768;9.600;2024-01-15T08:19:12;96071.72;;;3.05;97.16
80624;BME280;70269;44.768;9.600;2024-01-15T08:21:37;96078.94;;;3.18;96.62
80624;BME280;70269;44.768;9.600;2024-01-15T08:24:03;96075.44;;;3.17;96.74
80624;BME280;70269;44.768;9.600;2024-01-15T08:26:29;96085.13;;;3.32;95.91
80624;BME280;70269;44.768;9.600;2024-01-15T08:28:55;96081.25;;;3.47;94.73
80624;BME280;70269;44.768;9.600;2024-01-15T08:31:20;96079.63;;;3.46;95.23
80624;BME280;70269;44.768;9.600;2024-01-15T08:33:46;96064.88;;;3.57;95.25
80624;BME280;70269;44.768;9.600;2024-01-15T08:36:12;96071.25;;;3.69;95.11
80624;BME280;70269;44.768;9.600;2024-01-15T08:38:38;96079.28;;;3.76;94.65
80624;BME280;70269;44.768;9.600;2024-01-15T08:41:04;96075.78;;;3.75;96.81
80624;BME280;70269;44.768;9.600;2024-01-15T08:43:29;96071.44;;;3.54;97.34
80624;BME280;70269;44.768;9.600;2024-01-15T08:45:56;96079.25;;;3.69;95.35
80624;BME280;70269;44.768;9.600;2024-01-15T08:48:23;96081.31;;;3.80;93.81
80624;BME280;70269;44.768;9.600;2024-01-15T08:50:48;96070.84;;;3.85;93.78
80624;BME280;70269;44.768;9.600;2024-01-15T08:53:14;96077.19;;;3.64;96.22
80624;BME280;70269;44.768;9.600;2024-01-15T08:55:40;96068.97;;;3.66;96.60
80624;BME280;70269;44.768;9.600;2024-01-15T08:58:08;96070.00;;;3.72;97.30
80624;BME280;70269;44.768;9.600;2024-01-15T09:00:34;96078.63;;;3.60;98.02
80624;BME280;70269;44.768;9.600;2024-01-15T09:02:59;96084.38;;;3.57;97.39
80624;BME280;70269;44.768;9.600;2024-01-15T09:05:25;96085.03;;;3.86;97.89
80624;BME280;70269;44.768;9.600;2024-01-15T09:07:51;96085.03;;;4.12;96.79
80624;BME280;70269;44.768;9.600;2024-01-15T09:10:18;96079.69;;;4.19;95.68
80624;BME280;70269;44.768;9.600;2024-01-15T09:12:43;96081.94;;;4.22;95.65
80624;BME280;70269;44.768;9.600;2024-01-15T09:15:09;96076.97;;;4.45;95.06
80624;BME280;70269;44.768;9.600;2024-01-15T09:17:35;96076.72;;;4.66;94.07
80624;BME280;70269;44.768;9.600;2024-01-15T09:20:01;96073.63;;;4.69;93.90
80624;BME280;70269;44.768;9.600;2024-01-15T09:22:26;96064.84;;;4.56;97.35
80624;BME280;70269;44.768;9.600;2024-01-15T09:24:52;96066.25;;;4.52;97.19
80624;BME280;70269;44.768;9.600;2024-01-15T09:27:18;96069.75;;;4.65;94.34
80624;BME280;70269;44.768;9.600;2024-01-15T09:29:44;96075.41;;;4.95;93.63
80624;BME280;70269;44.768;9.600;2024-01-15T09:32:12;96073.28;;;5.17;92.62
80624;BME280;70269;44.768;9.600;2024-01-15T09:34:38;96069.28;;;5.33;91.04
80624;BME280;70269;44.768;9.600;2024-01-15T09:37:04;96061.78;;;5.48;88.94
80624;BME280;70269;44.768;9.600;2024-01-15T09:39:30;96066.22;;;5.29;91.18
80624;BME280;70269;44.768;9.600;2024-01-15T09:41:59;96065.16;;;5.37;89.44
80624;BME280;70269;44.768;9.600;2024-01-15T09:44:26;96065.28;;;5.48;91.85
80624;BME280;70269;44.768;9.600;2024-01-15T09:46:53;96066.25;;;5.22;89.48
80624;BME280;70269;44.768;9.600;2024-01-15T09:49:19;96073.53;;;5.47;92.75
80624;BME280;70269;44.768;9.600;2024-01-15T09:51:45;96062.63;;;5.48;90.30
80624;BME280;70269;44.768;9.600;2024-01-15T09:54:12;96049.56;;;5.58;90.61
80624;BME280;70269;44.768;9.600;2024-01-15T09:56:40;96048.50;;;5.66;89.77
80624;BME280;70269;44.768;9.600;2024-01-15T09:59:06;96051.81;;;5.93;89.17
80624;BME280;70269;44.768;9.600;2024-01-15T10:01:32;96033.88;;;6.18;88.37
80624;BME280;70269;44.768;9.600;2024-01-15T10:03:59;96045.69;;;6.35;87.18
80624;BME280;70269;44.768;9.600;2024-01-15T10:06:27;96033.19;;;6.47;86.54
80624;BME280;70269;44.768;9.600;2024-01-15T10:08:53;96031.94;;;6.68;85.57
80624;BME280;70269;44.768;9.600;2024-01-15T10:11:19;96031.56;;;6.83;84.18
80624;BME280;70269;44.768;9.600;2024-01-15T10:13:45;96025.72;;;7.04;84.01
80624;BME280;70269;44.768;9.600;2024-01-15T10:16:11;96020.13;;;7.06;81.76
80624;BME280;70269;44.768;9.600;2024-01-15T10:18:37;96016.41;;;7.07;81.69
80624;BME280;70269;44.768;9.600;2024-01-15T10:21:06;96010.69;;;7.03;83.56
80624;BME280;70269;44.768;9.600;2024-01-15T10:23:33;96001.03;;;7.14;82.20
80624;BME280;70269;44.768;9.600;2024-01-15T10:25:59;95992.69;;;7.22;82.38
80624;BME280;70269;44.768;9.600;2024-01-15T10:28:29;95994.28;;;7.23;81.16
80624;BME280;70269;44.768;9.600;2024-01-15T10:30:57;95983.78;;;7.51;80.95
80624;BME280;70269;44.768;9.600;2024-01-15T10:33:24;95990.09;;;7.57;81.07
80624;BME280;70269;44.768;9.600;2024-01-15T10:35:57;95991.50;;;7.59;80.67
80624;BME280;70269;44.768;9.600;2024-01-15T10:38:24;95979.31;;;7.45;79.20
80624;BME280;70269;44.768;9.600;2024-01-15T10:40:53;95971.84;;;7.17;79.64
80624;BME280;70269;44.768;9.600;2024-01-15T10:43:20;95971.03;;;7.17;79.64
80624;BME280;70269;44.768;9.600;2024-01-15T10:45:46;95963.84;;;6.99;79.43
80624;BME280;70269;44.768;9.600;2024-01-15T10:48:13;95951.19;;;7.18;79.62
80624;BME280;70269;44.768;9.600;2024-01-15T10:50:39;95966.41;;;7.24;81.37
80624;BME280;70269;44.768;9.600;2024-01-15T10:53:05;95956.00;;;7.16;81.11
80624;BME280;70269;44.768;9.600;2024-01-15T10:55:35;95949.06;;;7.08;80.30
80624;BME280;70269;44.768;9.600;2024-01-15T10:58:02;95935.97;;;7.00;79.46
80624;BME280;70269;44.768;9.600;2024-01-15T11:00:29;95946.69;;;7.00;80.87
80624;BME280;70269;44.768;9.600;2024-01-15T11:02:55;95938.69;;;7.12;80.12
80624;BME280;70269;44.768;9.600;2024-01-15T11:05:22;95936.63;;;7.25;80.55
80624;BME280;70269;44.768;9.600;2024-01-15T11:07:49;95928.81;;;7.36;79.76
80624;BME280;70269;44.768;9.600;2024-01-15T11:13:09;95900.72;;;7.50;77.76
80624;BME280;70269;44.768;9.600;2024-01-15T11:18:20;95914.38;;;7.60;78.00
80624;BME280;70269;44.768;9.600;2024-01-15T11:23:51;95899.13;;;7.84;78.99
80624;BME280;70269;44.768;9.600;2024-01-15T11:26:45;95881.81;;;7.80;77.19
80624;BME280;70269;44.768;9.600;2024-01-15T11:34:21;95856.28;;;7.24;78.58
80624;BME280;70269;44.768;9.600;2024-01-15T11:37:07;95849.88;;;7.37;78.20
80624;BME280;70269;44.768;9.600;2024-01-15T11:42:00;95839.75;;;7.73;78.37
80624;BME280;70269;44.768;9.600;2024-01-15T11:44:27;95831.09;;;7.60;79.06
80624;BME280;70269;44.768;9.600;2024-01-15T11:46:59;95825.84;;;7.53;80.37
80624;BME280;70269;44.768;9.600;2024-01-15T11:52:20;95829.81;;;7.27;80.26
80624;BME280;70269;44.768;9.600;2024-01-15T12:00:06;95805.53;;;7.34;80.80
80624;BME280;70269;44.768;9.600;2024-01-15T12:02:41;95813.63;;;7.04;80.59
80624;BME280;70269;44.768;9.600;2024-01-15T12:05:08;95811.38;;;6.78;79.16
80624;BME280;70269;44.768;9.600;2024-01-15T12:07:34;95802.53;;;6.47;79.93
80624;BME280;70269;44.768;9.600;2024-01-15T12:10:01;95804.59;;;6.45;80.66
80624;BME280;70269;44.768;9.600;2024-01-15T12:15:17;95796.50;;;6.64;80.98
80624;BME280;70269;44.768;9.600;2024-01-15T12:17:43;95790.63;;;6.55;80.49
80624;BME280;70269;44.768;9.600;2024-01-15T12:20:09;95791.19;;;6.45;81.11
80624;BME280;70269;44.768;9.600;2024-01-15T12:22:35;95784.63;;;6.60;81.10
80624;BME280;70269;44.768;9.600;2024-01-15T12:25:01;95786.69;;;6.58;79.92
80624;BME280;70269;44.768;9.600;2024-01-15T12:27:26;95777.78;;;6.45;80.14
80624;BME280;70269;44.768;9.600;2024-01-15T12:29:55;95775.09;;;6.45;80.42
80624;BME280;70269;44.768;9.600;2024-01-15T12:32:24;95781.91;;;6.48;79.97
80624;BME280;70269;44.768;9.600;2024-01-15T12:34:49;95778.97;;;6.49;80.18
80624;BME280;70269;44.768;9.600;2024-01-15T12:37:18;95775.22;;;6.50;79.99
80624;BME280;70269;44.768;9.600;2024-01-15T12:39:43;95780.47;;;6.45;80.04
80624;BME280;70269;44.768;9.600;2024-01-15T12:42:10;95781.16;;;6.41;79.26
80624;BME280;70269;44.768;9.600;2024-01-15T12:44:36;95770.69;;;6.21;80.70
80624;BME280;70269;44.768;9.600;2024-01-15T12:47:06;95767.56;;;6.24;80.44
80624;BME280;70269;44.768;9.600;2024-01-15T12:49:32;95768.06;;;6.33;80.67
80624;BME280;70269;44.768;9.600;2024-01-15T12:51:58;95768.47;;;6.18;79.77
80624;BME280;70269;44.768;9.600;2024-01-15T12:54:25;95763.44;;;6.10;80.78
80624;BME280;70269;44.768;9.600;2024-01-15T12:56:51;95748.16;;;6.11;80.70
80624;BME280;70269;44.768;9.600;2024-01-15T12:59:17;95759.59;;;6.18;80.62
80624;BME280;70269;44.768;9.600;2024-01-15T13:01:43;95741.44;;;6.20;79.88
80624;BME280;70269;44.768;9.600;2024-01-15T13:04:09;95740.31;;;6.27;80.25
80624;BME280;70269;44.768;9.600;2024-01-15T13:06:35;95743.25;;;6.37;80.13
80624;BME280;70269;44.768;9.600;2024-01-15T13:09:02;95740.59;;;6.49;81.24
80624;BME280;70269;44.768;9.600;2024-01-15T13:11:31;95729.59;;;6.39;79.56
80624;BME280;70269;44.768;9.600;2024-01-15T13:13:57;95729.25;;;6.35;80.22
80624;BME280;70269;44.768;9.600;2024-01-15T13:16:22;95724.81;;;6.29;80.32
80624;BME280;70269;44.768;9.600;2024-01-15T13:18:48;95727.34;;;6.24;80.14
80624;BME280;70269;44.768;9.600;2024-01-15T13:21:15;95722.88;;;6.18;80.48
80624;BME280;70269;44.768;9.600;2024-01-15T13:23:41;95715.22;;;6.22;81.66
80624;BME280;70269;44.768;9.600;2024-01-15T13:26:06;95720.72;;;6.27;80.11
80624;BME280;70269;44.768;9.600;2024-01-15T13:28:33;95706.38;;;6.33;80.02
80624;BME280;70269;44.768;9.600;2024-01-15T13:30:59;95709.16;;;6.26;80.60